Terminal Aerodrome Forecast
Issued by NWS

Home | Current Version | Previous Version | Text Only | Print | Product List | Glossary On
Versions: 1 2 3 4 5 6 7 8 9 10 11 12 13 14 15 16 17 18 19 20 21 22 23
000
FTUS43 KGRB 260500
TAFATW
TAF
KATW 260520Z 2606/2706 VRB03KT 6SM BR SCT100 BKN150
     FM261100 VRB03KT 3SM BR SCT012 OVC100
     FM261600 VRB03KT 5SM HZ BKN025 BKN090
     FM270100 35004KT 6SM BR BKN020 OVC060=

USA.gov is the U.S. government's official web portal to all federal, state and local government web resources and services.